Latest Weather Observations for Esperance

IDW60801

Issued at 9:33 am WST Tuesday 27 September 2016 (issued every 30 minutes, with the page automatically refreshed every 10 minutes)

About weather observations | Map of weather stations | Latest weather observations for WA | Other Formats
Station Details ID: 009789 Name: ESPERANCE Lat: -33.83 Lon: 121.89 Height: 25.0 m
Data from the previous 72 hours. | See also: Recent months at Esperance
Date/Time
WST
Temp
°C
App
Temp
°C
Dew
Point
°C
Rel
Hum
%
Delta-T
°C
Wind Press
QNH
hPa
Press
MSL
hPa
Rain since
9am
mm
Dir  Spd
km/h
Gust
km/h
Spd
kts
Gust
kts
27/09:00am 15.7 11.9 9.8 68 3.1 NW 20 26 11 14 1012.1 1012.1 0.0
27/08:30am 14.4 10.5 9.3 71 2.6 NW 20 30 11 16 1012.6 1012.6 0.0
27/08:00am 13.8 10.1 9.3 74 2.3 WNW 19 24 10 13 1012.7 1012.7 0.0
27/07:30am 12.7 8.9 8.9 78 1.9 NW 19 26 10 14 1013.1 1013.1 0.0
27/07:00am 11.3 7.2 8.5 83 1.4 NW 20 28 11 15 1013.2 1013.2 0.0
27/06:30am 10.4 6.7 8.1 86 1.1 NW 17 22 9 12 1013.5 1013.5 0.0
27/06:00am 9.3 5.6 7.8 90 0.7 NW 17 20 9 11 1013.5 1013.5 0.0
27/05:30am 9.4 6.1 7.9 90 0.7 NW 15 20 8 11 1013.4 1013.4 0.0
27/05:00am 9.8 6.1 7.9 88 0.9 NW 17 20 9 11 1013.5 1013.5 0.0
27/04:30am 10.4 6.8 8.4 87 1.0 NW 17 22 9 12 1013.5 1013.5 0.0
27/04:00am 10.7 6.7 8.2 84 1.2 NW 19 30 10 16 1013.3 1013.3 0.0
27/03:30am 10.7 6.7 8.2 84 1.2 NW 19 28 10 15 1013.4 1013.4 0.0
27/03:00am 11.1 7.5 8.5 84 1.3 WNW 17 20 9 11 1013.4 1013.4 0.0
27/02:30am 11.2 7.7 8.6 84 1.3 NW 17 22 9 12 1013.4 1013.4 0.0
27/02:00am 12.5 9.8 10.4 87 1.1 NW 15 22 8 12 1013.8 1013.8 0.0
27/01:30am 12.7 11.4 11.4 92 0.7 SW 9 13 5 7 1014.2 1014.2 0.0
27/01:00am 12.7 11.4 11.4 92 0.7 NNW 9 13 5 7 1014.3 1014.3 0.0
27/12:30am 12.6 11.7 11.3 92 0.7 NNW 7 11 4 6 1014.5 1014.5 0.0
27/12:00am 13.0 11.7 11.1 88 1.0 NW 9 11 5 6 1014.9 1014.9 0.0
 
Date/Time
WST
Temp
°C
App
Temp
°C
Dew
Point
°C
Rel
Hum
%
Delta-T
°C
Wind Press
QNH
hPa
Press
MSL
hPa
Rain since
9am
mm
Dir  Spd
km/h
Gust
km/h
Spd
kts
Gust
kts
26/11:30pm 13.1 12.2 10.8 86 1.2 WNW 6 9 3 5 1015.1 1015.1 0.0
26/11:00pm 13.7 12.3 10.8 83 1.5 WSW 9 13 5 7 1015.7 1015.6 0.0
26/10:30pm 13.7 12.3 11.0 84 1.4 WSW 9 15 5 8 1015.7 1015.6 0.0
26/10:00pm 13.7 12.5 11.6 87 1.1 WSW 9 13 5 7 1015.7 1015.6 0.0
26/09:30pm 14.0 11.6 9.9 76 2.1 SW 13 19 7 10 1015.3 1015.3 0.0
26/09:00pm 14.7 10.4 6.9 59 3.8 NW 19 24 10 13 1014.8 1014.8 0.0
26/08:30pm 14.9 10.5 6.7 58 4.0 NW 19 24 10 13 1014.8 1014.8 0.0
26/08:00pm 14.6 10.9 6.5 58 3.9 NW 15 19 8 10 1015.1 1015.1 0.0
26/07:30pm 14.1 10.9 6.9 62 3.5 NW 13 15 7 8 1014.8 1014.8 0.0
26/07:00pm 14.3 11.5 7.1 62 3.5 WNW 11 13 6 7 1014.7 1014.7 0.0
26/06:30pm 14.8 12.1 7.3 61 3.7 NW 11 17 6 9 1014.4 1014.4 0.0
26/06:00pm 15.9 12.3 6.7 54 4.5 WNW 15 20 8 11 1014.3 1014.3 0.0
26/05:30pm 17.2 13.0 5.9 47 5.5 WNW 17 28 9 15 1014.3 1014.3 0.0
26/05:00pm 17.8 14.3 7.3 50 5.3 WSW 15 22 8 12 1014.4 1014.4 0.0
26/04:30pm 17.9 14.2 6.1 46 5.8 WSW 15 24 8 13 1014.3 1014.3 0.0
26/04:00pm 18.3 12.8 3.9 38 6.8 WNW 22 33 12 18 1014.1 1014.1 0.0
26/03:30pm 19.6 14.0 3.2 33 7.7 WNW 22 35 12 19 1014.0 1014.0 0.0
26/03:00pm 19.3 12.9 3.0 34 7.6 NW 26 35 14 19 1014.0 1014.0 0.0
26/02:30pm 19.2 12.4 2.9 34 7.6 NW 28 39 15 21 1014.2 1014.2 0.0
26/02:00pm 18.9 12.1 3.3 35 7.3 WNW 28 44 15 24 1014.4 1014.4 0.0
26/01:30pm 18.5 12.9 3.3 36 7.1 WNW 22 39 12 21 1014.7 1014.7 0.0
26/01:00pm 17.7 11.9 2.3 35 7.0 WNW 22 33 12 18 1014.9 1014.9 0.0
26/12:30pm 17.5 10.9 2.3 36 6.9 WNW 26 37 14 20 1015.5 1015.4 0.0
26/12:00pm 17.1 10.9 1.9 36 6.8 WNW 24 41 13 22 1016.1 1016.0 0.0
26/11:30am 17.0 10.9 2.7 38 6.5 WNW 24 43 13 23 1016.6 1016.5 0.0
26/11:00am 16.1 9.9 2.2 39 6.2 WNW 24 37 13 20 1017.0 1016.9 0.0
26/10:30am 15.5 8.9 2.2 40 5.9 NW 26 37 14 20 1017.4 1017.3 0.0
26/10:00am 14.7 7.9 3.2 46 5.2 NW 28 39 15 21 1017.9 1017.8 0.0
26/09:30am 13.7 6.2 3.2 49 4.7 NW 32 43 17 23 1018.2 1018.1 0.0
26/09:00am 13.5 7.6 3.8 52 4.4 NW 24 33 13 18 1018.4 1018.3 3.6
26/08:30am 11.9 5.5 3.3 55 3.8 NW 26 33 14 18 1018.2 1018.1 3.6
26/08:00am 10.8 4.4 3.2 59 3.3 NW 26 35 14 19 1018.3 1018.2 3.6
26/07:30am 9.7 4.1 3.5 65 2.7 NW 22 32 12 17 1018.2 1018.1 3.6
26/07:00am 8.3 3.2 3.1 70 2.2 NW 19 24 10 13 1018.2 1018.1 3.6
26/06:30am 6.8 1.0 2.4 73 1.8 NW 22 28 12 15 1018.0 1017.9 3.6
26/06:00am 5.7 0.9 2.8 81 1.2 NW 17 20 9 11 1017.8 1017.7 3.6
26/05:30am 5.0 0.6 2.8 86 0.9 WNW 15 19 8 10 1018.0 1017.9 3.6
26/05:00am 5.3 1.7 2.9 84 1.0 WNW 11 15 6 8 1017.9 1017.8 3.6
26/04:30am 5.9 2.9 2.2 77 1.5 WNW 7 11 4 6 1017.6 1017.5 3.6
26/04:00am 5.8 2.1 2.4 79 1.4 NW 11 17 6 9 1017.5 1017.4 3.6
26/03:30am 5.7 2.0 2.5 80 1.3 NW 11 17 6 9 1017.5 1017.4 3.6
26/03:00am 6.4 1.5 2.2 74 1.7 NW 17 22 9 12 1017.6 1017.5 3.6
26/02:30am 5.1 1.1 2.9 86 0.9 WNW 13 15 7 8 1017.8 1017.7 3.6
26/02:00am 5.2 2.4 3.0 86 0.9 WNW 7 9 4 5 1017.9 1017.8 3.6
26/01:30am 6.3 3.5 3.2 80 1.3 NW 7 11 4 6 1018.0 1017.9 3.6
26/01:00am 6.2 3.0 3.3 82 1.2 NW 9 13 5 7 1018.2 1018.1 3.6
26/12:30am 6.6 3.3 2.7 76 1.6 NNW 9 11 5 6 1018.2 1018.1 3.6
26/12:00am 7.1 4.1 4.3 82 1.2 NNW 9 11 5 6 1018.4 1018.3 3.6
 
Date/Time
WST
Temp
°C
App
Temp
°C
Dew
Point
°C
Rel
Hum
%
Delta-T
°C
Wind Press
QNH
hPa
Press
MSL
hPa
Rain since
9am
mm
Dir  Spd
km/h
Gust
km/h
Spd
kts
Gust
kts
25/11:30pm 8.5 5.6 2.5 66 2.5 W 7 9 4 5 1018.6 1018.5 3.6
25/11:00pm 8.3 5.3 2.3 66 2.5 W 7 9 4 5 1018.9 1018.8 3.6
25/10:30pm 8.7 4.8 1.1 59 3.1 SW 11 13 6 7 1019.0 1018.9 3.6
25/10:00pm 9.0 5.1 1.2 58 3.2 SW 11 15 6 8 1019.3 1019.2 3.6
25/09:30pm 9.3 5.4 0.9 55 3.4 WSW 11 13 6 7 1019.4 1019.3 3.6
25/09:00pm 9.5 5.4 -0.4 50 3.9 WSW 11 15 6 8 1019.4 1019.3 3.6
25/08:30pm 9.9 5.4 -0.1 50 4.0 SW 13 19 7 10 1019.5 1019.4 3.6
25/08:00pm 10.0 5.8 1.6 56 3.5 SW 13 20 7 11 1019.3 1019.2 3.6
25/07:30pm 10.4 5.5 -0.4 47 4.3 SW 15 24 8 13 1019.1 1019.0 3.6
25/07:00pm 10.6 6.0 1.5 53 3.8 SW 15 22 8 12 1018.9 1018.8 3.6
25/06:30pm 10.8 6.2 1.8 54 3.8 SW 15 24 8 13 1018.4 1018.3 3.6
25/06:00pm 10.8 6.1 1.2 51 4.0 SW 15 22 8 12 1018.1 1018.0 3.6
25/05:30pm 11.6 5.8 0.1 45 4.7 SW 20 28 11 15 1017.8 1017.7 3.6
25/05:00pm 12.3 6.4 -1.9 37 5.6 SW 19 28 10 15 1017.4 1017.3 3.6
25/04:30pm 12.6 7.0 1.3 46 4.8 SW 20 33 11 18 1017.2 1017.1 3.6
25/04:00pm 12.8 6.6 0.0 41 5.3 SW 22 39 12 21 1016.9 1016.8 3.6
25/03:30pm 13.1 5.9 -1.7 36 5.9 SW 26 39 14 21 1016.8 1016.7 3.6
25/03:00pm 13.1 5.8 -0.2 40 5.5 SW 28 41 15 22 1016.4 1016.3 3.6
25/02:30pm 13.0 6.4 -0.4 39 5.5 SW 24 37 13 20 1016.1 1016.0 3.6
25/02:00pm 13.2 6.8 1.2 44 5.1 SW 24 41 13 22 1015.7 1015.6 3.6
25/01:30pm 12.8 5.5 2.2 48 4.6 SW 30 44 16 24 1015.2 1015.2 3.6
25/01:07pm 12.9 5.0 1.1 44 5.0 SW 32 50 17 27 1015.2 1015.2 3.6
25/01:00pm 12.6 5.2 1.9 48 4.6 SW 30 46 16 25 1015.2 1015.2 3.6
25/12:42pm 12.2 5.2 1.7 48 4.5 SW 28 46 15 25 1015.3 1015.3 3.6
25/12:30pm 12.0 6.1 3.7 57 3.7 SW 24 43 13 23 1015.1 1015.1 3.6
25/12:00pm 12.1 6.7 6.4 68 2.7 SW 24 37 13 20 1015.0 1015.0 3.6
25/11:42am 12.3 7.8 7.1 70 2.5 SW 20 35 11 19 1014.8 1014.8 3.6
25/11:30am 11.4 7.3 8.6 83 1.4 SW 20 35 11 19 1014.8 1014.8 3.6
25/11:16am 11.0 5.9 9.2 89 0.9 SSW 26 50 14 27 1014.6 1014.6 3.6
25/11:00am 12.5 7.6 8.5 76 2.0 SSW 24 35 13 19 1014.4 1014.4 3.4
25/10:39am 12.3 7.6 9.1 81 1.6 SSW 24 39 13 21 1014.1 1014.1 3.4
25/10:30am 11.7 7.9 9.9 89 0.9 SSW 20 32 11 17 1014.1 1014.1 3.4
25/10:17am 11.3 6.8 10.1 92 0.6 SSW 24 33 13 18 1014.1 1014.1 3.4
25/10:16am 11.5 7.0 10.1 91 0.7 SSW 24 33 13 18 1014.0 1014.0 3.2
25/10:00am 11.2 7.1 10.0 92 0.6 SSW 22 33 12 18 1013.9 1013.9 2.8
25/09:47am 12.1 8.1 10.6 90 0.8 SSW 22 33 12 18 1013.8 1013.8 0.6
25/09:41am 13.1 9.6 10.8 86 1.2 SW 20 33 11 18 1013.6 1013.6 0.2
25/09:30am 12.4 8.5 10.9 90 0.8 SW 22 43 12 23 1013.7 1013.7 0.0
25/09:22am 12.0 6.4 10.2 89 0.9 WSW 30 54 16 29 1013.7 1013.7 0.0
25/09:19am 13.0 7.7 9.7 80 1.7 W 28 54 15 29 1013.6 1013.6 0.0
25/09:00am 14.0 9.4 8.2 68 2.9 WNW 22 35 12 19 1013.3 1013.3 0.0
25/08:30am 13.2 8.8 7.2 67 2.9 WNW 20 30 11 16 1013.3 1013.3 0.0
25/08:00am 11.4 6.7 6.1 70 2.5 WNW 20 30 11 16 1013.2 1013.2 0.0
25/07:30am 10.6 5.8 5.4 70 2.4 NW 20 32 11 17 1013.1 1013.1 0.0
25/07:00am 9.2 3.8 4.5 72 2.1 NW 22 30 12 16 1013.1 1013.1 0.0
25/06:30am 8.9 4.1 4.4 73 2.0 NW 19 28 10 15 1013.0 1013.0 0.0
25/06:00am 8.4 4.6 4.0 74 1.9 NW 13 20 7 11 1012.8 1012.8 0.0
25/05:30am 7.9 4.6 4.5 79 1.5 NW 11 15 6 8 1012.7 1012.7 0.0
25/05:00am 7.4 4.2 5.1 85 1.0 NW 11 15 6 8 1012.7 1012.7 0.0
25/04:30am 7.9 5.2 5.4 84 1.1 NNW 9 15 5 8 1012.5 1012.5 0.0
25/04:00am 8.0 4.6 6.0 87 0.9 N 13 19 7 10 1012.4 1012.4 0.0
25/03:30am 8.1 4.4 6.1 87 0.9 N 15 20 8 11 1012.3 1012.3 0.0
25/03:00am 8.2 3.6 5.8 85 1.1 N 19 24 10 13 1012.2 1012.2 0.0
25/02:30am 7.7 3.5 5.5 86 1.0 N 17 22 9 12 1012.3 1012.3 0.0
25/02:00am 7.2 3.6 5.2 87 0.9 N 13 17 7 9 1012.5 1012.5 0.0
25/01:30am 6.9 3.7 5.1 88 0.8 N 11 15 6 8 1013.0 1013.0 0.0
25/01:00am 7.7 4.1 5.0 83 1.2 NNE 13 15 7 8 1013.1 1013.1 0.0
25/12:30am 8.0 4.8 5.3 83 1.2 N 11 15 6 8 1013.6 1013.6 0.0
25/12:00am 7.7 5.0 5.7 87 0.9 NNW 9 13 5 7 1014.0 1014.0 0.0
 
Date/Time
WST
Temp
°C
App
Temp
°C
Dew
Point
°C
Rel
Hum
%
Delta-T
°C
Wind Press
QNH
hPa
Press
MSL
hPa
Rain since
9am
mm
Dir  Spd
km/h
Gust
km/h
Spd
kts
Gust
kts
24/11:30pm 8.1 6.3 5.4 83 1.2 NW 4 9 2 5 1014.1 1014.1 0.0
24/11:00pm 7.7 5.4 5.7 87 0.9 NNW 7 9 4 5 1014.1 1014.1 0.0
24/10:30pm 8.2 5.5 5.5 83 1.2 N 9 13 5 7 1014.0 1014.0 0.0
24/10:00pm 8.1 5.4 5.4 83 1.2 N 9 11 5 6 1014.2 1014.2 0.0
24/09:30pm 8.5 5.5 5.9 84 1.2 N 11 13 6 7 1014.3 1014.3 0.0
24/09:00pm 8.8 5.9 6.4 85 1.1 N 11 13 6 7 1014.4 1014.4 0.0
24/08:30pm 9.5 7.0 6.5 81 1.4 N 9 11 5 6 1014.6 1014.6 0.0
24/08:00pm 10.1 7.7 7.1 81 1.4 N 9 9 5 5 1014.6 1014.6 0.0
24/07:30pm 10.9 10.3 7.6 80 1.6 CALM 0 0 0 0 1014.4 1014.4 0.0
24/07:00pm 11.6 10.5 5.3 65 2.9 CALM 0 0 0 0 1014.1 1014.1 0.0
24/06:30pm 11.9 9.6 4.7 61 3.3 SSE 6 9 3 5 1013.7 1013.7 0.0
24/06:00pm 12.0 9.0 4.3 59 3.5 SSW 9 9 5 5 1013.6 1013.6 0.0
24/05:30pm 12.5 8.8 4.4 58 3.7 S 13 17 7 9 1013.7 1013.7 0.0
24/05:00pm 12.9 8.7 3.8 54 4.1 S 15 20 8 11 1013.7 1013.7 0.0
24/04:30pm 13.3 8.8 4.1 53 4.2 S 17 22 9 12 1013.7 1013.7 0.0
24/04:00pm 14.0 10.0 3.1 48 4.9 SSW 13 20 7 11 1013.6 1013.6 0.0
24/03:30pm 14.2 9.6 3.6 49 4.8 SSW 17 22 9 12 1013.5 1013.5 0.0
24/03:00pm 14.9 10.7 3.8 47 5.1 SW 15 24 8 13 1013.7 1013.7 0.0
24/02:30pm 14.8 11.3 3.3 46 5.2 SW 11 19 6 10 1013.7 1013.7 0.0
24/02:00pm 14.5 10.1 2.9 45 5.2 WSW 15 22 8 12 1013.9 1013.9 0.0
24/01:30pm 14.7 10.9 3.8 48 5.0 WSW 13 20 7 11 1014.2 1014.2 0.0
24/01:00pm 14.4 10.2 3.6 48 4.9 WSW 15 22 8 12 1014.5 1014.5 0.0
24/12:30pm 14.7 9.7 3.5 47 5.1 WNW 19 28 10 15 1014.9 1014.9 0.0
24/12:00pm 14.7 8.5 2.3 43 5.5 NW 24 32 13 17 1015.5 1015.4 0.0
24/11:30am 14.7 8.7 3.5 47 5.1 NW 24 32 13 17 1015.8 1015.7 0.0
24/11:00am 13.9 8.3 3.2 48 4.8 WNW 22 35 12 19 1015.9 1015.8 0.0
24/10:30am 13.4 8.2 3.3 50 4.5 WNW 20 30 11 16 1016.1 1016.0 0.0
24/10:00am 12.8 6.9 3.9 54 4.0 WNW 24 33 13 18 1016.4 1016.3 0.0

Other Formats:

Comma delimited format used in spreadsheet applications
http://www.bom.gov.au/fwo/IDW60801/IDW60801.94638.axf

JavaScript Object Notation format (JSON) in row-major order
http://www.bom.gov.au/fwo/IDW60801/IDW60801.94638.json